sensor_id;sensor_type;location;lat;lon;timestamp;P1;durP1;ratioP1;P2;durP2;ratioP2
47455;SDS011;33202;48.512;-2.780;2023-05-23T00:00:53;9.30;;;4.70;;
47455;SDS011;33202;48.512;-2.780;2023-05-23T00:03:19;7.85;;;4.25;;
47455;SDS011;33202;48.512;-2.780;2023-05-23T00:05:47;7.97;;;4.60;;
47455;SDS011;33202;48.512;-2.780;2023-05-23T00:08:13;7.57;;;4.50;;
47455;SDS011;33202;48.512;-2.780;2023-05-23T00:10:40;9.73;;;4.32;;
47455;SDS011;33202;48.512;-2.780;2023-05-23T00:13:06;6.75;;;4.10;;
47455;SDS011;33202;48.512;-2.780;2023-05-23T00:15:36;7.00;;;3.70;;
47455;SDS011;33202;48.512;-2.780;2023-05-23T00:18:02;9.75;;;4.30;;
47455;SDS011;33202;48.512;-2.780;2023-05-23T00:20:28;7.80;;;4.13;;
47455;SDS011;33202;48.512;-2.780;2023-05-23T00:22:54;8.10;;;4.32;;
47455;SDS011;33202;48.512;-2.780;2023-05-23T00:25:23;6.60;;;4.05;;
47455;SDS011;33202;48.512;-2.780;2023-05-23T00:27:50;8.13;;;4.27;;
47455;SDS011;33202;48.512;-2.780;2023-05-23T00:30:16;7.28;;;4.35;;
47455;SDS011;33202;48.512;-2.780;2023-05-23T00:32:42;8.30;;;4.50;;
47455;SDS011;33202;48.512;-2.780;2023-05-23T00:35:08;6.90;;;4.60;;
47455;SDS011;33202;48.512;-2.780;2023-05-23T00:37:34;7.82;;;4.65;;
47455;SDS011;33202;48.512;-2.780;2023-05-23T00:40:00;8.60;;;4.72;;
47455;SDS011;33202;48.512;-2.780;2023-05-23T00:42:26;7.15;;;4.72;;
47455;SDS011;33202;48.512;-2.780;2023-05-23T00:44:52;7.53;;;4.80;;
47455;SDS011;33202;48.512;-2.780;2023-05-23T00:47:18;8.00;;;4.13;;
47455;SDS011;33202;48.512;-2.780;2023-05-23T00:49:44;6.75;;;4.10;;
47455;SDS011;33202;48.512;-2.780;2023-05-23T00:52:10;7.55;;;4.30;;
47455;SDS011;33202;48.512;-2.780;2023-05-23T00:54:36;7.25;;;4.10;;
47455;SDS011;33202;48.512;-2.780;2023-05-23T00:57:03;7.82;;;4.55;;
47455;SDS011;33202;48.512;-2.780;2023-05-23T00:59:30;7.80;;;4.75;;
47455;SDS011;33202;48.512;-2.780;2023-05-23T01:01:56;7.53;;;4.78;;
47455;SDS011;33202;48.512;-2.780;2023-05-23T01:04:24;8.02;;;5.22;;
47455;SDS011;33202;48.512;-2.780;2023-05-23T01:06:53;11.07;;;5.05;;
47455;SDS011;33202;48.512;-2.780;2023-05-23T01:09:19;9.57;;;4.37;;
47455;SDS011;33202;48.512;-2.780;2023-05-23T01:11:54;9.45;;;5.43;;
47455;SDS011;33202;48.512;-2.780;2023-05-23T01:14:27;10.50;;;5.28;;
47455;SDS011;33202;48.512;-2.780;2023-05-23T01:16:58;8.60;;;4.68;;
47455;SDS011;33202;48.512;-2.780;2023-05-23T01:24:56;10.43;;;4.82;;
47455;SDS011;33202;48.512;-2.780;2023-05-23T01:27:41;10.77;;;5.65;;
47455;SDS011;33202;48.512;-2.780;2023-05-23T01:30:10;6.80;;;5.13;;
47455;SDS011;33202;48.512;-2.780;2023-05-23T01:32:38;9.35;;;5.35;;
47455;SDS011;33202;48.512;-2.780;2023-05-23T01:35:04;12.02;;;5.82;;
47455;SDS011;33202;48.512;-2.780;2023-05-23T01:37:31;8.93;;;5.40;;
47455;SDS011;33202;48.512;-2.780;2023-05-23T01:39:57;9.40;;;5.70;;
47455;SDS011;33202;48.512;-2.780;2023-05-23T01:42:22;9.35;;;6.20;;
47455;SDS011;33202;48.512;-2.780;2023-05-23T01:44:49;9.90;;;5.63;;
47455;SDS011;33202;48.512;-2.780;2023-05-23T01:47:15;7.75;;;5.55;;
47455;SDS011;33202;48.512;-2.780;2023-05-23T01:49:41;11.57;;;5.82;;
47455;SDS011;33202;48.512;-2.780;2023-05-23T01:52:08;9.10;;;5.20;;
47455;SDS011;33202;48.512;-2.780;2023-05-23T01:54:35;10.85;;;5.70;;
47455;SDS011;33202;48.512;-2.780;2023-05-23T01:57:02;13.88;;;5.82;;
47455;SDS011;33202;48.512;-2.780;2023-05-23T01:59:29;11.90;;;6.18;;
47455;SDS011;33202;48.512;-2.780;2023-05-23T02:01:55;12.23;;;6.50;;
47455;SDS011;33202;48.512;-2.780;2023-05-23T02:04:21;14.48;;;6.40;;
47455;SDS011;33202;48.512;-2.780;2023-05-23T02:06:47;11.75;;;6.60;;
47455;SDS011;33202;48.512;-2.780;2023-05-23T02:09:13;10.10;;;6.00;;
47455;SDS011;33202;48.512;-2.780;2023-05-23T02:11:39;12.02;;;6.65;;
47455;SDS011;33202;48.512;-2.780;2023-05-23T02:14:05;12.60;;;6.18;;
47455;SDS011;33202;48.512;-2.780;2023-05-23T02:16:31;13.73;;;7.10;;
47455;SDS011;33202;48.512;-2.780;2023-05-23T02:19:00;11.95;;;6.47;;
47455;SDS011;33202;48.512;-2.780;2023-05-23T02:21:26;10.55;;;6.07;;
47455;SDS011;33202;48.512;-2.780;2023-05-23T02:23:52;9.98;;;6.43;;
47455;SDS011;33202;48.512;-2.780;2023-05-23T02:26:18;14.23;;;7.43;;
47455;SDS011;33202;48.512;-2.780;2023-05-23T02:28:44;11.10;;;6.65;;
47455;SDS011;33202;48.512;-2.780;2023-05-23T02:31:10;11.93;;;6.50;;
47455;SDS011;33202;48.512;-2.780;2023-05-23T02:33:36;11.85;;;7.47;;
47455;SDS011;33202;48.512;-2.780;2023-05-23T02:36:02;10.68;;;6.35;;
47455;SDS011;33202;48.512;-2.780;2023-05-23T02:38:28;11.48;;;6.43;;
47455;SDS011;33202;48.512;-2.780;2023-05-23T02:40:54;10.30;;;6.68;;
47455;SDS011;33202;48.512;-2.780;2023-05-23T02:43:21;10.70;;;6.38;;
47455;SDS011;33202;48.512;-2.780;2023-05-23T02:45:47;10.38;;;6.25;;
47455;SDS011;33202;48.512;-2.780;2023-05-23T02:48:13;10.98;;;6.40;;
47455;SDS011;33202;48.512;-2.780;2023-05-23T02:50:39;10.13;;;6.90;;
47455;SDS011;33202;48.512;-2.780;2023-05-23T02:53:05;10.85;;;6.20;;
47455;SDS011;33202;48.512;-2.780;2023-05-23T02:55:31;9.65;;;6.15;;
47455;SDS011;33202;48.512;-2.780;2023-05-23T02:57:57;10.75;;;6.07;;
47455;SDS011;33202;48.512;-2.780;2023-05-23T03:00:24;10.30;;;6.53;;
47455;SDS011;33202;48.512;-2.780;2023-05-23T03:02:50;11.73;;;6.22;;
47455;SDS011;33202;48.512;-2.780;2023-05-23T03:05:16;12.25;;;6.15;;
47455;SDS011;33202;48.512;-2.780;2023-05-23T03:07:42;9.88;;;5.88;;
47455;SDS011;33202;48.512;-2.780;2023-05-23T03:10:08;8.00;;;5.65;;
47455;SDS011;33202;48.512;-2.780;2023-05-23T03:12:34;10.27;;;6.18;;
47455;SDS011;33202;48.512;-2.780;2023-05-23T03:15:01;12.55;;;6.53;;
47455;SDS011;33202;48.512;-2.780;2023-05-23T03:17:27;10.73;;;6.72;;
47455;SDS011;33202;48.512;-2.780;2023-05-23T03:19:53;12.20;;;6.70;;
47455;SDS011;33202;48.512;-2.780;2023-05-23T03:22:19;12.57;;;6.43;;
47455;SDS011;33202;48.512;-2.780;2023-05-23T03:24:45;12.00;;;6.82;;
47455;SDS011;33202;48.512;-2.780;2023-05-23T03:27:11;13.75;;;6.63;;
47455;SDS011;33202;48.512;-2.780;2023-05-23T03:29:37;11.98;;;6.53;;
47455;SDS011;33202;48.512;-2.780;2023-05-23T03:32:03;9.48;;;6.10;;
47455;SDS011;33202;48.512;-2.780;2023-05-23T03:34:29;10.93;;;6.50;;
47455;SDS011;33202;48.512;-2.780;2023-05-23T03:36:56;11.45;;;6.60;;
47455;SDS011;33202;48.512;-2.780;2023-05-23T03:39:23;8.68;;;5.60;;
47455;SDS011;33202;48.512;-2.780;2023-05-23T03:41:49;8.32;;;4.97;;
47455;SDS011;33202;48.512;-2.780;2023-05-23T03:44:15;9.23;;;5.25;;
47455;SDS011;33202;48.512;-2.780;2023-05-23T03:46:41;9.88;;;5.45;;
47455;SDS011;33202;48.512;-2.780;2023-05-23T03:49:07;11.48;;;6.07;;
47455;SDS011;33202;48.512;-2.780;2023-05-23T03:51:33;8.98;;;5.72;;
47455;SDS011;33202;48.512;-2.780;2023-05-23T03:53:59;10.68;;;6.22;;
47455;SDS011;33202;48.512;-2.780;2023-05-23T03:56:25;13.68;;;6.72;;
47455;SDS011;33202;48.512;-2.780;2023-05-23T04:01:18;10.52;;;6.03;;
47455;SDS011;33202;48.512;-2.780;2023-05-23T04:03:44;9.55;;;5.88;;
47455;SDS011;33202;48.512;-2.780;2023-05-23T04:06:11;9.30;;;5.80;;
47455;SDS011;33202;48.512;-2.780;2023-05-23T04:08:37;11.07;;;6.13;;
47455;SDS011;33202;48.512;-2.780;2023-05-23T04:11:05;9.75;;;5.63;;
47455;SDS011;33202;48.512;-2.780;2023-05-23T04:13:31;8.30;;;5.88;;
47455;SDS011;33202;48.512;-2.780;2023-05-23T04:15:58;10.00;;;6.18;;
47455;SDS011;33202;48.512;-2.780;2023-05-23T04:18:25;9.98;;;5.43;;
47455;SDS011;33202;48.512;-2.780;2023-05-23T04:20:52;8.88;;;5.45;;
47455;SDS011;33202;48.512;-2.780;2023-05-23T04:23:18;9.63;;;5.13;;
47455;SDS011;33202;48.512;-2.780;2023-05-23T04:25:44;8.43;;;5.38;;
47455;SDS011;33202;48.512;-2.780;2023-05-23T04:28:12;11.98;;;6.05;;
47455;SDS011;33202;48.512;-2.780;2023-05-23T04:30:38;8.38;;;4.80;;
47455;SDS011;33202;48.512;-2.780;2023-05-23T04:33:04;13.20;;;5.25;;
47455;SDS011;33202;48.512;-2.780;2023-05-23T04:35:30;10.35;;;5.07;;
47455;SDS011;33202;48.512;-2.780;2023-05-23T04:37:58;9.77;;;4.88;;
47455;SDS011;33202;48.512;-2.780;2023-05-23T04:40:24;11.80;;;5.60;;
47455;SDS011;33202;48.512;-2.780;2023-05-23T04:42:50;12.77;;;5.30;;
47455;SDS011;33202;48.512;-2.780;2023-05-23T04:45:16;6.63;;;4.35;;
47455;SDS011;33202;48.512;-2.780;2023-05-23T04:47:43;11.10;;;5.05;;
47455;SDS011;33202;48.512;-2.780;2023-05-23T04:50:09;9.13;;;5.00;;
47455;SDS011;33202;48.512;-2.780;2023-05-23T04:52:35;7.45;;;4.30;;
47455;SDS011;33202;48.512;-2.780;2023-05-23T04:55:01;9.93;;;4.53;;
47455;SDS011;33202;48.512;-2.780;2023-05-23T04:57:28;7.13;;;3.85;;
47455;SDS011;33202;48.512;-2.780;2023-05-23T04:59:54;7.05;;;4.30;;
47455;SDS011;33202;48.512;-2.780;2023-05-23T05:02:21;9.18;;;4.40;;
47455;SDS011;33202;48.512;-2.780;2023-05-23T05:04:47;6.53;;;4.63;;
47455;SDS011;33202;48.512;-2.780;2023-05-23T05:07:13;8.98;;;4.25;;
47455;SDS011;33202;48.512;-2.780;2023-05-23T05:09:40;7.95;;;3.97;;
47455;SDS011;33202;48.512;-2.780;2023-05-23T05:12:06;8.55;;;4.47;;
47455;SDS011;33202;48.512;-2.780;2023-05-23T05:14:32;6.28;;;3.47;;
47455;SDS011;33202;48.512;-2.780;2023-05-23T05:16:58;9.77;;;3.70;;
47455;SDS011;33202;48.512;-2.780;2023-05-23T05:19:26;10.20;;;3.88;;
47455;SDS011;33202;48.512;-2.780;2023-05-23T05:21:52;7.45;;;3.78;;
47455;SDS011;33202;48.512;-2.780;2023-05-23T05:24:18;8.93;;;3.60;;
47455;SDS011;33202;48.512;-2.780;2023-05-23T05:26:46;9.00;;;3.60;;
47455;SDS011;33202;48.512;-2.780;2023-05-23T05:29:13;8.67;;;3.67;;
47455;SDS011;33202;48.512;-2.780;2023-05-23T05:31:39;13.50;;;4.35;;
47455;SDS011;33202;48.512;-2.780;2023-05-23T05:34:04;10.20;;;4.20;;
47455;SDS011;33202;48.512;-2.780;2023-05-23T05:36:30;7.65;;;3.63;;
47455;SDS011;33202;48.512;-2.780;2023-05-23T05:38:57;9.65;;;3.70;;
47455;SDS011;33202;48.512;-2.780;2023-05-23T05:41:23;12.23;;;3.95;;
47455;SDS011;33202;48.512;-2.780;2023-05-23T05:43:49;7.43;;;3.92;;
47455;SDS011;33202;48.512;-2.780;2023-05-23T05:46:15;8.88;;;4.07;;
47455;SDS011;33202;48.512;-2.780;2023-05-23T05:48:41;7.78;;;3.70;;
47455;SDS011;33202;48.512;-2.780;2023-05-23T05:51:07;9.05;;;3.75;;
47455;SDS011;33202;48.512;-2.780;2023-05-23T05:53:33;8.35;;;3.90;;
47455;SDS011;33202;48.512;-2.780;2023-05-23T05:55:59;7.95;;;3.80;;
47455;SDS011;33202;48.512;-2.780;2023-05-23T05:58:25;10.18;;;3.85;;
47455;SDS011;33202;48.512;-2.780;2023-05-23T06:00:51;8.52;;;3.28;;
47455;SDS011;33202;48.512;-2.780;2023-05-23T06:03:17;9.15;;;3.50;;
47455;SDS011;33202;48.512;-2.780;2023-05-23T06:05:43;10.15;;;4.03;;
47455;SDS011;33202;48.512;-2.780;2023-05-23T06:08:09;6.07;;;3.60;;
47455;SDS011;33202;48.512;-2.780;2023-05-23T06:10:36;10.20;;;4.00;;
47455;SDS011;33202;48.512;-2.780;2023-05-23T06:13:03;11.02;;;3.90;;
47455;SDS011;33202;48.512;-2.780;2023-05-23T06:15:29;7.38;;;4.25;;
47455;SDS011;33202;48.512;-2.780;2023-05-23T06:17:55;8.23;;;3.75;;
47455;SDS011;33202;48.512;-2.780;2023-05-23T06:20:21;9.38;;;3.83;;
47455;SDS011;33202;48.512;-2.780;2023-05-23T06:22:47;6.93;;;3.80;;
47455;SDS011;33202;48.512;-2.780;2023-05-23T06:25:13;8.75;;;4.00;;
47455;SDS011;33202;48.512;-2.780;2023-05-23T06:27:39;11.35;;;3.92;;
47455;SDS011;33202;48.512;-2.780;2023-05-23T06:30:05;8.98;;;3.58;;
47455;SDS011;33202;48.512;-2.780;2023-05-23T06:32:31;8.38;;;4.10;;
47455;SDS011;33202;48.512;-2.780;2023-05-23T06:34:57;10.68;;;3.40;;
47455;SDS011;33202;48.512;-2.780;2023-05-23T06:37:23;8.27;;;4.15;;
47455;SDS011;33202;48.512;-2.780;2023-05-23T06:39:49;7.47;;;3.70;;
47455;SDS011;33202;48.512;-2.780;2023-05-23T06:42:15;8.10;;;3.60;;
47455;SDS011;33202;48.512;-2.780;2023-05-23T06:44:41;8.93;;;4.05;;
47455;SDS011;33202;48.512;-2.780;2023-05-23T06:47:07;10.02;;;4.15;;
47455;SDS011;33202;48.512;-2.780;2023-05-23T06:49:33;9.02;;;4.28;;
47455;SDS011;33202;48.512;-2.780;2023-05-23T06:51:59;8.80;;;4.20;;
47455;SDS011;33202;48.512;-2.780;2023-05-23T06:54:25;7.03;;;3.70;;
47455;SDS011;33202;48.512;-2.780;2023-05-23T06:56:51;9.73;;;4.35;;
47455;SDS011;33202;48.512;-2.780;2023-05-23T06:59:17;7.75;;;4.03;;
47455;SDS011;33202;48.512;-2.780;2023-05-23T07:01:43;9.77;;;4.70;;
47455;SDS011;33202;48.512;-2.780;2023-05-23T07:04:09;9.35;;;4.60;;
47455;SDS011;33202;48.512;-2.780;2023-05-23T07:06:36;8.50;;;3.95;;
47455;SDS011;33202;48.512;-2.780;2023-05-23T07:09:03;9.10;;;4.55;;
47455;SDS011;33202;48.512;-2.780;2023-05-23T07:11:29;14.40;;;5.43;;
47455;SDS011;33202;48.512;-2.780;2023-05-23T07:13:55;12.95;;;5.15;;
47455;SDS011;33202;48.512;-2.780;2023-05-23T07:16:21;14.30;;;5.47;;
47455;SDS011;33202;48.512;-2.780;2023-05-23T07:18:47;10.57;;;5.20;;
47455;SDS011;33202;48.512;-2.780;2023-05-23T07:21:13;10.93;;;5.25;;
47455;SDS011;33202;48.512;-2.780;2023-05-23T07:23:39;11.57;;;5.28;;
47455;SDS011;33202;48.512;-2.780;2023-05-23T07:26:05;11.45;;;5.32;;
47455;SDS011;33202;48.512;-2.780;2023-05-23T07:28:33;9.10;;;5.60;;
47455;SDS011;33202;48.512;-2.780;2023-05-23T07:31:00;14.63;;;5.78;;
47455;SDS011;33202;48.512;-2.780;2023-05-23T07:33:25;12.18;;;5.72;;
47455;SDS011;33202;48.512;-2.780;2023-05-23T07:35:51;11.57;;;5.90;;
47455;SDS011;33202;48.512;-2.780;2023-05-23T07:38:17;11.18;;;5.68;;
47455;SDS011;33202;48.512;-2.780;2023-05-23T07:40:43;12.23;;;5.47;;
47455;SDS011;33202;48.512;-2.780;2023-05-23T07:43:09;13.68;;;6.60;;
47455;SDS011;33202;48.512;-2.780;2023-05-23T07:45:35;12.73;;;5.53;;
47455;SDS011;33202;48.512;-2.780;2023-05-23T07:48:01;13.13;;;6.28;;
47455;SDS011;33202;48.512;-2.780;2023-05-23T07:50:27;10.13;;;5.45;;
47455;SDS011;33202;48.512;-2.780;2023-05-23T07:52:53;13.68;;;6.25;;
47455;SDS011;33202;48.512;-2.780;2023-05-23T07:55:19;19.60;;;6.40;;
47455;SDS011;33202;48.512;-2.780;2023-05-23T07:57:46;13.30;;;5.85;;
47455;SDS011;33202;48.512;-2.780;2023-05-23T08:00:12;12.55;;;6.55;;
47455;SDS011;33202;48.512;-2.780;2023-05-23T08:02:38;13.85;;;6.63;;
47455;SDS011;33202;48.512;-2.780;2023-05-23T08:05:04;12.50;;;6.65;;
47455;SDS011;33202;48.512;-2.780;2023-05-23T08:07:31;12.90;;;6.50;;
47455;SDS011;33202;48.512;-2.780;2023-05-23T08:09:57;13.30;;;6.82;;
47455;SDS011;33202;48.512;-2.780;2023-05-23T08:12:23;9.75;;;5.95;;
47455;SDS011;33202;48.512;-2.780;2023-05-23T08:14:49;13.15;;;6.38;;
47455;SDS011;33202;48.512;-2.780;2023-05-23T08:17:15;13.68;;;6.85;;
47455;SDS011;33202;48.512;-2.780;2023-05-23T08:19:41;13.75;;;6.68;;
47455;SDS011;33202;48.512;-2.780;2023-05-23T08:22:07;12.38;;;6.07;;
47455;SDS011;33202;48.512;-2.780;2023-05-23T08:24:33;11.88;;;6.25;;
47455;SDS011;33202;48.512;-2.780;2023-05-23T08:26:59;10.13;;;5.80;;
47455;SDS011;33202;48.512;-2.780;2023-05-23T08:29:25;14.15;;;6.00;;
47455;SDS011;33202;48.512;-2.780;2023-05-23T08:31:52;11.40;;;5.90;;
47455;SDS011;33202;48.512;-2.780;2023-05-23T08:34:18;13.80;;;6.18;;
47455;SDS011;33202;48.512;-2.780;2023-05-23T08:36:44;10.98;;;5.50;;
47455;SDS011;33202;48.512;-2.780;2023-05-23T08:39:10;11.13;;;5.70;;
47455;SDS011;33202;48.512;-2.780;2023-05-23T08:41:37;12.53;;;5.97;;
47455;SDS011;33202;48.512;-2.780;2023-05-23T08:44:04;13.30;;;5.97;;
47455;SDS011;33202;48.512;-2.780;2023-05-23T08:46:30;17.55;;;6.35;;
47455;SDS011;33202;48.512;-2.780;2023-05-23T08:48:57;11.93;;;6.80;;
47455;SDS011;33202;48.512;-2.780;2023-05-23T08:51:24;13.65;;;7.10;;
47455;SDS011;33202;48.512;-2.780;2023-05-23T08:53:50;11.68;;;6.88;;
47455;SDS011;33202;48.512;-2.780;2023-05-23T08:56:20;13.38;;;6.50;;
47455;SDS011;33202;48.512;-2.780;2023-05-23T08:58:46;12.57;;;5.47;;
47455;SDS011;33202;48.512;-2.780;2023-05-23T09:01:13;13.10;;;6.22;;
47455;SDS011;33202;48.512;-2.780;2023-05-23T09:03:42;17.27;;;6.57;;
47455;SDS011;33202;48.512;-2.780;2023-05-23T09:06:08;15.80;;;7.22;;
47455;SDS011;33202;48.512;-2.780;2023-05-23T09:08:35;11.88;;;6.72;;
47455;SDS011;33202;48.512;-2.780;2023-05-23T09:11:01;16.33;;;7.03;;
47455;SDS011;33202;48.512;-2.780;2023-05-23T09:13:31;11.93;;;5.60;;
47455;SDS011;33202;48.512;-2.780;2023-05-23T09:18:25;14.15;;;6.38;;
47455;SDS011;33202;48.512;-2.780;2023-05-23T09:20:51;15.90;;;6.63;;
47455;SDS011;33202;48.512;-2.780;2023-05-23T09:23:17;11.50;;;6.22;;
47455;SDS011;33202;48.512;-2.780;2023-05-23T09:25:46;12.45;;;6.60;;
47455;SDS011;33202;48.512;-2.780;2023-05-23T09:28:12;11.25;;;6.40;;
47455;SDS011;33202;48.512;-2.780;2023-05-23T09:30:39;12.57;;;6.55;;
47455;SDS011;33202;48.512;-2.780;2023-05-23T09:33:05;13.00;;;6.82;;
47455;SDS011;33202;48.512;-2.780;2023-05-23T09:35:31;14.80;;;7.00;;
47455;SDS011;33202;48.512;-2.780;2023-05-23T09:37:57;15.95;;;6.82;;
47455;SDS011;33202;48.512;-2.780;2023-05-23T09:40:23;16.17;;;6.65;;
47455;SDS011;33202;48.512;-2.780;2023-05-23T09:42:53;15.85;;;6.63;;
47455;SDS011;33202;48.512;-2.780;2023-05-23T09:45:19;10.35;;;6.22;;
47455;SDS011;33202;48.512;-2.780;2023-05-23T09:47:51;10.88;;;6.72;;
47455;SDS011;33202;48.512;-2.780;2023-05-23T09:50:18;14.13;;;7.20;;
47455;SDS011;33202;48.512;-2.780;2023-05-23T09:52:44;16.67;;;7.60;;
47455;SDS011;33202;48.512;-2.780;2023-05-23T09:55:14;15.90;;;6.70;;
47455;SDS011;33202;48.512;-2.780;2023-05-23T09:57:41;14.15;;;7.13;;
47455;SDS011;33202;48.512;-2.780;2023-05-23T10:00:07;15.75;;;7.35;;
47455;SDS011;33202;48.512;-2.780;2023-05-23T10:05:14;15.40;;;7.32;;
47455;SDS011;33202;48.512;-2.780;2023-05-23T10:07:43;13.20;;;6.38;;
47455;SDS011;33202;48.512;-2.780;2023-05-23T10:10:10;11.27;;;6.70;;
47455;SDS011;33202;48.512;-2.780;2023-05-23T10:12:44;11.75;;;6.50;;
47455;SDS011;33202;48.512;-2.780;2023-05-23T10:15:13;14.20;;;7.18;;
47455;SDS011;33202;48.512;-2.780;2023-05-23T10:20:19;13.18;;;7.20;;
47455;SDS011;33202;48.512;-2.780;2023-05-23T10:22:46;9.98;;;6.35;;
47455;SDS011;33202;48.512;-2.780;2023-05-23T10:25:13;18.57;;;6.60;;
47455;SDS011;33202;48.512;-2.780;2023-05-23T10:27:40;16.95;;;7.05;;
47455;SDS011;33202;48.512;-2.780;2023-05-23T10:30:06;13.85;;;7.25;;
47455;SDS011;33202;48.512;-2.780;2023-05-23T10:32:33;13.82;;;7.13;;
47455;SDS011;33202;48.512;-2.780;2023-05-23T10:35:00;15.95;;;7.15;;
47455;SDS011;33202;48.512;-2.780;2023-05-23T10:37:30;13.48;;;6.20;;
47455;SDS011;33202;48.512;-2.780;2023-05-23T10:45:15;13.80;;;7.38;;
47455;SDS011;33202;48.512;-2.780;2023-05-23T10:47:41;13.32;;;7.18;;
47455;SDS011;33202;48.512;-2.780;2023-05-23T10:50:10;12.02;;;6.80;;
47455;SDS011;33202;48.512;-2.780;2023-05-23T10:52:40;11.95;;;6.03;;
47455;SDS011;33202;48.512;-2.780;2023-05-23T10:55:13;11.73;;;6.32;;
47455;SDS011;33202;48.512;-2.780;2023-05-23T10:57:41;9.23;;;6.30;;
47455;SDS011;33202;48.512;-2.780;2023-05-23T11:00:14;13.87;;;6.93;;
47455;SDS011;33202;48.512;-2.780;2023-05-23T11:02:53;16.70;;;7.57;;
47455;SDS011;33202;48.512;-2.780;2023-05-23T11:05:20;15.32;;;7.47;;
47455;SDS011;33202;48.512;-2.780;2023-05-23T11:08:06;13.68;;;6.85;;
47455;SDS011;33202;48.512;-2.780;2023-05-23T11:18:49;10.57;;;6.47;;
47455;SDS011;33202;48.512;-2.780;2023-05-23T11:21:16;12.07;;;6.45;;
47455;SDS011;33202;48.512;-2.780;2023-05-23T11:23:42;15.10;;;6.50;;
47455;SDS011;33202;48.512;-2.780;2023-05-23T11:28:55;13.50;;;5.75;;
47455;SDS011;33202;48.512;-2.780;2023-05-23T11:31:22;14.95;;;6.82;;
47455;SDS011;33202;48.512;-2.780;2023-05-23T11:33:51;13.50;;;6.38;;
47455;SDS011;33202;48.512;-2.780;2023-05-23T11:36:17;13.65;;;6.28;;
47455;SDS011;33202;48.512;-2.780;2023-05-23T11:38:43;17.52;;;6.00;;
47455;SDS011;33202;48.512;-2.780;2023-05-23T11:41:09;13.77;;;6.00;;
47455;SDS011;33202;48.512;-2.780;2023-05-23T11:43:35;11.18;;;5.43;;
47455;SDS011;33202;48.512;-2.780;2023-05-23T11:46:07;11.25;;;6.60;;
47455;SDS011;33202;48.512;-2.780;2023-05-23T11:48:33;9.35;;;5.70;;
47455;SDS011;33202;48.512;-2.780;2023-05-23T11:51:00;15.68;;;6.00;;
47455;SDS011;33202;48.512;-2.780;2023-05-23T11:53:27;11.68;;;5.78;;
47455;SDS011;33202;48.512;-2.780;2023-05-23T11:55:56;12.63;;;5.60;;
47455;SDS011;33202;48.512;-2.780;2023-05-23T11:58:32;10.80;;;5.30;;
47455;SDS011;33202;48.512;-2.780;2023-05-23T12:01:04;10.20;;;5.30;;
47455;SDS011;33202;48.512;-2.780;2023-05-23T12:03:31;11.55;;;6.22;;
47455;SDS011;33202;48.512;-2.780;2023-05-23T12:05:57;14.80;;;5.77;;
47455;SDS011;33202;48.512;-2.780;2023-05-23T12:08:23;11.75;;;5.75;;
47455;SDS011;33202;48.512;-2.780;2023-05-23T12:10:53;10.95;;;5.40;;
47455;SDS011;33202;48.512;-2.780;2023-05-23T12:13:25;9.88;;;5.82;;
47455;SDS011;33202;48.512;-2.780;2023-05-23T12:16:00;10.52;;;5.60;;
47455;SDS011;33202;48.512;-2.780;2023-05-23T12:18:28;13.32;;;5.00;;
47455;SDS011;33202;48.512;-2.780;2023-05-23T12:20:54;8.43;;;5.35;;
47455;SDS011;33202;48.512;-2.780;2023-05-23T12:23:24;11.45;;;5.82;;
47455;SDS011;33202;48.512;-2.780;2023-05-23T12:25:51;8.85;;;4.72;;
47455;SDS011;33202;48.512;-2.780;2023-05-23T12:28:18;13.88;;;5.53;;
47455;SDS011;33202;48.512;-2.780;2023-05-23T12:30:44;8.40;;;5.05;;
47455;SDS011;33202;48.512;-2.780;2023-05-23T12:33:10;8.52;;;4.68;;
47455;SDS011;33202;48.512;-2.780;2023-05-23T12:35:37;10.75;;;5.30;;
47455;SDS011;33202;48.512;-2.780;2023-05-23T12:38:07;10.80;;;5.82;;
47455;SDS011;33202;48.512;-2.780;2023-05-23T12:40:34;11.85;;;5.53;;
47455;SDS011;33202;48.512;-2.780;2023-05-23T12:43:00;10.40;;;5.10;;
47455;SDS011;33202;48.512;-2.780;2023-05-23T12:45:33;7.97;;;4.93;;
47455;SDS011;33202;48.512;-2.780;2023-05-23T12:48:00;8.00;;;4.57;;
47455;SDS011;33202;48.512;-2.780;2023-05-23T12:50:26;12.40;;;5.25;;
47455;SDS011;33202;48.512;-2.780;2023-05-23T12:52:52;10.00;;;4.63;;
47455;SDS011;33202;48.512;-2.780;2023-05-23T12:55:18;10.75;;;5.07;;
47455;SDS011;33202;48.512;-2.780;2023-05-23T12:57:44;10.27;;;4.93;;
47455;SDS011;33202;48.512;-2.780;2023-05-23T13:00:11;10.07;;;4.80;;
47455;SDS011;33202;48.512;-2.780;2023-05-23T13:02:37;10.13;;;4.83;;
47455;SDS011;33202;48.512;-2.780;2023-05-23T13:05:06;8.27;;;4.55;;
47455;SDS011;33202;48.512;-2.780;2023-05-23T13:07:32;8.95;;;4.85;;
47455;SDS011;33202;48.512;-2.780;2023-05-23T13:09:59;9.30;;;3.95;;
47455;SDS011;33202;48.512;-2.780;2023-05-23T13:12:25;9.35;;;4.43;;
47455;SDS011;33202;48.512;-2.780;2023-05-23T13:14:51;12.40;;;4.80;;
47455;SDS011;33202;48.512;-2.780;2023-05-23T13:17:17;9.05;;;4.47;;
47455;SDS011;33202;48.512;-2.780;2023-05-23T13:19:43;8.20;;;5.03;;
47455;SDS011;33202;48.512;-2.780;2023-05-23T13:22:09;10.20;;;5.47;;
47455;SDS011;33202;48.512;-2.780;2023-05-23T13:24:36;8.60;;;5.30;;
47455;SDS011;33202;48.512;-2.780;2023-05-23T13:27:03;12.63;;;5.43;;
47455;SDS011;33202;48.512;-2.780;2023-05-23T13:29:29;10.65;;;5.68;;
47455;SDS011;33202;48.512;-2.780;2023-05-23T13:31:55;13.40;;;5.57;;
47455;SDS011;33202;48.512;-2.780;2023-05-23T13:34:21;14.13;;;5.47;;
47455;SDS011;33202;48.512;-2.780;2023-05-23T13:36:47;11.52;;;4.93;;
47455;SDS011;33202;48.512;-2.780;2023-05-23T13:39:13;12.75;;;5.15;;
47455;SDS011;33202;48.512;-2.780;2023-05-23T13:41:39;11.98;;;5.40;;
47455;SDS011;33202;48.512;-2.780;2023-05-23T13:44:05;11.52;;;5.22;;
47455;SDS011;33202;48.512;-2.780;2023-05-23T13:46:31;12.85;;;5.30;;
47455;SDS011;33202;48.512;-2.780;2023-05-23T13:48:57;17.67;;;6.00;;
47455;SDS011;33202;48.512;-2.780;2023-05-23T13:51:23;11.90;;;5.65;;
47455;SDS011;33202;48.512;-2.780;2023-05-23T13:53:49;17.98;;;5.68;;
47455;SDS011;33202;48.512;-2.780;2023-05-23T13:56:16;10.50;;;5.07;;
47455;SDS011;33202;48.512;-2.780;2023-05-23T13:58:42;12.23;;;5.80;;
47455;SDS011;33202;48.512;-2.780;2023-05-23T14:01:10;11.20;;;5.70;;
47455;SDS011;33202;48.512;-2.780;2023-05-23T14:03:36;13.50;;;6.03;;
47455;SDS011;33202;48.512;-2.780;2023-05-23T14:06:02;9.23;;;5.57;;
47455;SDS011;33202;48.512;-2.780;2023-05-23T14:08:29;14.97;;;6.07;;
47455;SDS011;33202;48.512;-2.780;2023-05-23T14:10:55;15.20;;;6.03;;
47455;SDS011;33202;48.512;-2.780;2023-05-23T14:13:21;12.55;;;5.72;;
47455;SDS011;33202;48.512;-2.780;2023-05-23T14:15:48;13.93;;;5.80;;
47455;SDS011;33202;48.512;-2.780;2023-05-23T14:18:14;15.02;;;6.03;;
47455;SDS011;33202;48.512;-2.780;2023-05-23T14:20:40;14.95;;;6.07;;
47455;SDS011;33202;48.512;-2.780;2023-05-23T14:23:06;12.32;;;5.88;;
47455;SDS011;33202;48.512;-2.780;2023-05-23T14:25:32;14.65;;;5.90;;
47455;SDS011;33202;48.512;-2.780;2023-05-23T14:27:58;14.32;;;5.93;;
47455;SDS011;33202;48.512;-2.780;2023-05-23T14:30:25;12.50;;;6.25;;
47455;SDS011;33202;48.512;-2.780;2023-05-23T14:32:51;11.38;;;5.30;;
47455;SDS011;33202;48.512;-2.780;2023-05-23T14:35:18;12.25;;;5.32;;
47455;SDS011;33202;48.512;-2.780;2023-05-23T14:37:46;10.30;;;5.45;;
47455;SDS011;33202;48.512;-2.780;2023-05-23T14:40:12;11.38;;;5.35;;
47455;SDS011;33202;48.512;-2.780;2023-05-23T14:42:40;16.48;;;5.88;;
47455;SDS011;33202;48.512;-2.780;2023-05-23T14:45:06;12.70;;;5.47;;
47455;SDS011;33202;48.512;-2.780;2023-05-23T14:47:32;13.82;;;6.22;;
47455;SDS011;33202;48.512;-2.780;2023-05-23T14:49:59;11.07;;;5.05;;
47455;SDS011;33202;48.512;-2.780;2023-05-23T14:52:25;13.70;;;5.25;;
47455;SDS011;33202;48.512;-2.780;2023-05-23T14:54:51;12.77;;;5.28;;